createdAt,value
2019-04-22T00:00:52.690Z,13.9
2019-04-22T00:02:07.130Z,14
2019-04-22T00:03:21.001Z,14.1
2019-04-22T00:04:35.476Z,14.1
2019-04-22T00:05:49.346Z,14.2
2019-04-22T00:07:03.518Z,14.1
2019-04-22T00:08:17.672Z,14.1
2019-04-22T00:09:31.884Z,14
2019-04-22T00:10:46.119Z,13.9
2019-04-22T00:12:00.178Z,13.9
2019-04-22T00:13:16.896Z,13.9
2019-04-22T00:14:28.932Z,13.9
2019-04-22T00:15:42.749Z,13.8
2019-04-22T00:16:56.812Z,13.9
2019-04-22T00:18:10.975Z,13.8
2019-04-22T00:19:25.141Z,13.9
2019-04-22T00:20:39.324Z,14
2019-04-22T00:21:53.516Z,14
2019-04-22T00:23:07.648Z,13.9
2019-04-22T00:24:21.927Z,13.9
2019-04-22T00:25:35.992Z,13.9
2019-04-22T00:26:50.237Z,13.7
2019-04-22T00:28:04.386Z,13.7
2019-04-22T00:29:18.488Z,13.6
2019-04-22T00:30:32.624Z,13.6
2019-04-22T00:31:46.873Z,13.6
2019-04-22T00:33:00.983Z,13.5
2019-04-22T00:34:15.144Z,13.6
2019-04-22T00:35:29.305Z,13.8
2019-04-22T00:36:43.543Z,13.9
2019-04-22T00:37:57.710Z,13.9
2019-04-22T00:39:11.886Z,13.9
2019-04-22T00:40:25.940Z,13.8
2019-04-22T00:41:40.086Z,13.8
2019-04-22T00:42:54.255Z,13.8
2019-04-22T00:44:08.508Z,13.8
2019-04-22T00:45:22.566Z,13.7
2019-04-22T00:46:36.808Z,13.9
2019-04-22T00:47:50.931Z,14.1
2019-04-22T00:49:05.065Z,13.9
2019-04-22T00:50:19.327Z,13.8
2019-04-22T00:51:33.413Z,13.7
2019-04-22T00:52:47.576Z,13.7
2019-04-22T00:54:01.765Z,13.8
2019-04-22T00:55:16.046Z,13.8
2019-04-22T00:56:30.085Z,13.6
2019-04-22T00:57:44.252Z,13.6
2019-04-22T00:58:58.404Z,13.6
2019-04-22T01:00:12.565Z,13.6
2019-04-22T01:01:26.764Z,13.8
2019-04-22T01:02:41.085Z,13.8
2019-04-22T01:03:55.070Z,13.7
2019-04-22T01:05:09.245Z,13.8
2019-04-22T01:06:23.500Z,13.7
2019-04-22T01:07:37.690Z,13.8
2019-04-22T01:08:52.752Z,13.9
2019-04-22T01:10:05.905Z,13.8
2019-04-22T01:11:20.165Z,13.7
2019-04-22T01:12:34.256Z,13.6
2019-04-22T01:13:48.450Z,13.5
2019-04-22T01:15:02.615Z,13.6
2019-04-22T01:16:16.833Z,13.6
2019-04-22T01:17:30.930Z,13.6
2019-04-22T01:18:45.086Z,13.5
2019-04-22T01:19:59.243Z,13.5
2019-04-22T01:21:13.508Z,13.4
2019-04-22T01:22:27.590Z,13.4
2019-04-22T01:23:41.741Z,13.4
2019-04-22T01:24:55.959Z,13.4
2019-04-22T01:26:10.182Z,13.5
2019-04-22T01:27:24.268Z,13.4
2019-04-22T01:28:38.498Z,13.3
2019-04-22T01:29:56.624Z,13.3
2019-04-22T01:31:09.473Z,13.5
2019-04-22T01:32:20.968Z,13.5
2019-04-22T01:33:35.208Z,13.7
2019-04-22T01:34:50.168Z,13.7
2019-04-22T01:36:03.499Z,13.7
2019-04-22T01:37:17.745Z,13.7
2019-04-22T01:38:31.887Z,13.7
2019-04-22T01:39:45.989Z,13.6
2019-04-22T01:41:00.129Z,13.6
2019-04-22T01:42:14.308Z,13.5
2019-04-22T01:43:28.669Z,13.4
2019-04-22T01:44:42.689Z,13.4
2019-04-22T01:45:56.777Z,13.5
2019-04-22T01:47:10.949Z,13.4
2019-04-22T01:48:25.130Z,13.4
2019-04-22T01:49:39.262Z,13.4
2019-04-22T01:50:53.458Z,13.3
2019-04-22T01:52:07.707Z,13.4
2019-04-22T01:53:21.758Z,13.3
2019-04-22T01:54:35.924Z,13.5
2019-04-22T01:55:50.527Z,13.6
2019-04-22T01:57:04.287Z,13.6
2019-04-22T01:58:18.421Z,13.6
2019-04-22T01:59:32.570Z,13.5
2019-04-22T02:00:46.751Z,13.4
2019-04-22T02:02:00.929Z,13.2
2019-04-22T02:03:15.178Z,13
2019-04-22T02:04:29.305Z,13.1
2019-04-22T02:05:43.437Z,13.1
2019-04-22T02:06:57.569Z,13.3
2019-04-22T02:08:11.743Z,13.5
2019-04-22T02:09:25.925Z,13.5
2019-04-22T02:10:40.104Z,13.4
2019-04-22T02:11:54.244Z,13.2
2019-04-22T02:13:08.398Z,13.3
2019-04-22T02:14:22.558Z,13.3
2019-04-22T02:15:36.797Z,13.3
2019-04-22T02:16:50.913Z,13.3
2019-04-22T02:18:05.058Z,13.4
2019-04-22T02:19:19.360Z,13.3
2019-04-22T02:20:33.386Z,13.2
2019-04-22T02:21:47.554Z,13.2
2019-04-22T02:23:01.729Z,13.1
2019-04-22T02:24:15.884Z,13
2019-04-22T02:25:30.103Z,13
2019-04-22T02:26:44.218Z,13.2
2019-04-22T02:27:58.444Z,13.2
2019-04-22T02:29:12.632Z,13.3
2019-04-22T02:30:26.758Z,13.4
2019-04-22T02:31:40.887Z,13.4
2019-04-22T02:32:55.053Z,13.4
2019-04-22T02:34:09.385Z,13.4
2019-04-22T02:35:23.429Z,13.4
2019-04-22T02:36:37.586Z,13.3
2019-04-22T02:37:55.251Z,13.2
2019-04-22T02:39:08.237Z,13.2
2019-04-22T02:40:20.172Z,13.2
2019-04-22T02:41:34.293Z,13.2
2019-04-22T02:42:48.480Z,13.2
2019-04-22T02:44:02.622Z,13.2
2019-04-22T02:45:16.797Z,13.2
2019-04-22T02:46:30.987Z,13
2019-04-22T02:47:45.165Z,13.1
2019-04-22T02:48:59.337Z,13.3
2019-04-22T02:50:13.505Z,13.1
2019-04-22T02:51:27.732Z,13.2
2019-04-22T02:52:41.877Z,13
2019-04-22T02:54:00.879Z,12.9
2019-04-22T02:55:13.248Z,13
2019-04-22T02:56:24.492Z,12.9
2019-04-22T02:57:38.650Z,13
2019-04-22T02:58:52.755Z,13
2019-04-22T03:00:06.982Z,13.1
2019-04-22T03:01:21.129Z,13.2
2019-04-22T03:02:35.392Z,13.2
2019-04-22T03:03:49.515Z,13.2
2019-04-22T03:05:03.607Z,13.1
2019-04-22T03:06:17.800Z,13.1
2019-04-22T03:07:32.009Z,13.1
2019-04-22T03:08:46.127Z,13
2019-04-22T03:10:00.301Z,12.9
2019-04-22T03:11:14.455Z,12.9
2019-04-22T03:12:28.771Z,12.9
2019-04-22T03:13:42.838Z,12.8
2019-04-22T03:14:57.050Z,12.6
2019-04-22T03:16:11.148Z,12.6
2019-04-22T03:17:25.328Z,12.7
2019-04-22T03:18:39.697Z,12.6
2019-04-22T03:19:53.640Z,12.5
2019-04-22T03:21:07.844Z,12.6
2019-04-22T03:22:21.991Z,12.7
2019-04-22T03:23:36.161Z,12.7
2019-04-22T03:24:50.409Z,12.9
2019-04-22T03:26:04.819Z,13
2019-04-22T03:27:18.702Z,13
2019-04-22T03:28:32.843Z,13
2019-04-22T03:29:47.079Z,13
2019-04-22T03:31:01.175Z,12.8
2019-04-22T03:32:15.373Z,12.8
2019-04-22T03:33:29.523Z,12.7
2019-04-22T03:34:43.770Z,12.6
2019-04-22T03:35:57.914Z,12.5
2019-04-22T03:37:12.077Z,12.5
2019-04-22T03:38:26.287Z,12.7
2019-04-22T03:39:40.551Z,12.7
2019-04-22T03:40:54.818Z,12.9
2019-04-22T03:42:08.739Z,12.8
2019-04-22T03:43:22.933Z,12.8
2019-04-22T03:44:37.169Z,12.7
2019-04-22T03:45:51.460Z,12.7
2019-04-22T03:47:05.605Z,12.8
2019-04-22T03:48:19.644Z,12.7
2019-04-22T03:49:33.857Z,12.6
2019-04-22T03:50:47.938Z,12.6
2019-04-22T03:52:02.135Z,12.6
2019-04-22T03:53:16.285Z,12.6
2019-04-22T03:54:30.432Z,12.6
2019-04-22T03:55:44.723Z,12.5
2019-04-22T03:56:58.884Z,12.4
2019-04-22T03:58:12.956Z,12.4
2019-04-22T03:59:27.213Z,12.4
2019-04-22T04:00:41.304Z,12.6
2019-04-22T04:01:55.527Z,12.7
2019-04-22T04:03:09.711Z,12.7
2019-04-22T04:04:23.789Z,12.6
2019-04-22T04:05:37.962Z,12.8
2019-04-22T04:06:52.248Z,12.7
2019-04-22T04:08:06.330Z,12.6
2019-04-22T04:09:20.565Z,12.5
2019-04-22T04:10:34.758Z,12.5
2019-04-22T04:11:48.885Z,12.4
2019-04-22T04:13:03.054Z,12.4
2019-04-22T04:14:17.196Z,12.4
2019-04-22T04:15:31.391Z,12.4
2019-04-22T04:16:45.546Z,12.4
2019-04-22T04:18:01.740Z,12.3
2019-04-22T04:19:14.344Z,12.4
2019-04-22T04:20:28.105Z,12.5
2019-04-22T04:21:42.674Z,12.5
2019-04-22T04:22:56.468Z,12.4
2019-04-22T04:24:10.916Z,12.3
2019-04-22T04:25:24.904Z,12.3
2019-04-22T04:26:39.036Z,12.3
2019-04-22T04:27:53.232Z,12.3
2019-04-22T04:29:07.449Z,12.4
2019-04-22T04:30:21.720Z,12.4
2019-04-22T04:31:35.763Z,12.3
2019-04-22T04:32:49.950Z,12.2
2019-04-22T04:34:04.245Z,12.3
2019-04-22T04:35:18.335Z,12.3
2019-04-22T04:36:32.526Z,12.3
2019-04-22T04:37:46.704Z,12.2
2019-04-22T04:39:00.885Z,12.2
2019-04-22T04:40:15.031Z,12.2
2019-04-22T04:41:29.217Z,12.1
2019-04-22T04:42:43.403Z,12.1
2019-04-22T04:43:57.781Z,12.2
2019-04-22T04:45:11.832Z,12.2
2019-04-22T04:46:25.987Z,12.2
2019-04-22T04:47:40.192Z,12.1
2019-04-22T04:50:08.528Z,12.4
2019-04-22T04:51:22.718Z,12.4
2019-04-22T04:52:36.901Z,12.5
2019-04-22T04:53:51.073Z,12.4
2019-04-22T04:55:05.328Z,12.5
2019-04-22T04:56:19.447Z,12.6
2019-04-22T04:57:33.659Z,12.5
2019-04-22T04:58:47.799Z,12.7
2019-04-22T05:00:01.993Z,12.7
2019-04-22T05:01:16.174Z,12.9
2019-04-22T05:02:30.339Z,13
2019-04-22T05:03:44.508Z,13.2
2019-04-22T05:04:58.766Z,13.3
2019-04-22T05:06:13.056Z,13.3
2019-04-22T05:07:27.072Z,13.4
2019-04-22T05:08:41.286Z,13.4
2019-04-22T05:09:55.413Z,13.6
2019-04-22T05:11:09.586Z,13.9
2019-04-22T05:12:23.779Z,14
2019-04-22T05:13:37.945Z,14
2019-04-22T05:14:52.147Z,14.2
2019-04-22T05:16:06.351Z,14.3
2019-04-22T05:17:20.600Z,14.5
2019-04-22T05:18:34.605Z,14.6
2019-04-22T05:19:48.887Z,14.6
2019-04-22T05:21:02.949Z,14.8
2019-04-22T05:22:17.098Z,14.9
2019-04-22T05:23:33.844Z,15
2019-04-22T05:24:45.488Z,15.1
2019-04-22T05:25:59.727Z,14.8
2019-04-22T05:27:13.784Z,15
2019-04-22T05:28:27.865Z,15.3
2019-04-22T05:29:42.089Z,15.3
2019-04-22T05:30:56.132Z,15.2
2019-04-22T05:32:10.282Z,15.4
2019-04-22T05:33:24.454Z,15.3
2019-04-22T05:34:38.578Z,15.5
2019-04-22T05:37:06.881Z,15.5
2019-04-22T05:38:21.087Z,15.4
2019-04-22T05:39:35.209Z,15.7
2019-04-22T05:40:49.286Z,15.9
2019-04-22T05:42:03.452Z,15.9
2019-04-22T05:43:17.597Z,15.9
2019-04-22T05:44:31.718Z,15.9
2019-04-22T05:45:45.900Z,15.8
2019-04-22T05:46:59.987Z,16.1
2019-04-22T05:48:14.138Z,16.3
2019-04-22T05:49:28.271Z,16.4
2019-04-22T05:50:42.443Z,16.3
2019-04-22T05:51:56.571Z,16.4
2019-04-22T05:53:10.697Z,16.5
2019-04-22T05:54:24.920Z,16.7
2019-04-22T05:55:39.006Z,16.8
2019-04-22T05:56:53.080Z,16.7
2019-04-22T05:58:07.209Z,16.7
2019-04-22T05:59:21.397Z,16.6
2019-04-22T06:00:35.650Z,16.5
2019-04-22T06:01:52.915Z,16.7
2019-04-22T06:03:03.713Z,17.2
2019-04-22T06:04:17.869Z,17.5
2019-04-22T06:05:31.992Z,17.1
2019-04-22T06:06:46.146Z,17.4
2019-04-22T06:08:00.305Z,17.3
2019-04-22T06:09:14.395Z,17
2019-04-22T06:10:28.508Z,17.2
2019-04-22T06:11:42.710Z,17.3
2019-04-22T06:12:56.907Z,17.3
2019-04-22T06:14:11.082Z,17.2
2019-04-22T06:15:25.092Z,17.2
2019-04-22T06:16:39.233Z,17.4
2019-04-22T06:17:53.345Z,17.8
2019-04-22T06:19:07.558Z,17.9
2019-04-22T06:20:21.720Z,17.9
2019-04-22T06:21:35.725Z,17.7
2019-04-22T06:22:49.843Z,17.8
2019-04-22T06:24:03.968Z,18.1
2019-04-22T06:25:18.197Z,18.5
2019-04-22T06:26:32.306Z,18.4
2019-04-22T06:27:46.314Z,18.3
2019-04-22T06:29:00.433Z,18.2
2019-04-22T06:30:14.544Z,18.1
2019-04-22T06:31:28.719Z,18.3
2019-04-22T06:32:42.776Z,18.7
2019-04-22T06:33:56.896Z,18.8
2019-04-22T06:35:11.072Z,18.7
2019-04-22T06:36:25.172Z,19.1
2019-04-22T06:37:39.251Z,19
2019-04-22T06:38:53.476Z,18.7
2019-04-22T06:40:07.466Z,19.3
2019-04-22T06:41:21.651Z,19.6
2019-04-22T06:42:35.690Z,19.4
2019-04-22T06:43:49.804Z,19.1
2019-04-22T06:45:04.087Z,19.2
2019-04-22T06:46:18.125Z,19.2
2019-04-22T06:47:32.093Z,19.3
2019-04-22T06:48:46.208Z,19.5
2019-04-22T06:50:04.491Z,19.6
2019-04-22T06:51:14.423Z,19.2
2019-04-22T06:52:28.554Z,19
2019-04-22T06:53:42.773Z,19.2
2019-04-22T06:55:01.758Z,19.9
2019-04-22T06:56:11.408Z,20
2019-04-22T06:57:25.405Z,20.1
2019-04-22T06:58:39.106Z,19.6
2019-04-22T06:59:53.150Z,19.1
2019-04-22T07:01:07.256Z,19.6
2019-04-22T07:02:22.120Z,19.8
2019-04-22T07:03:35.515Z,19.9
2019-04-22T07:04:49.571Z,19.9
2019-04-22T07:06:03.661Z,19.8
2019-04-22T07:07:17.788Z,19.9
2019-04-22T07:08:31.898Z,20.5
2019-04-22T07:09:46.093Z,20.9
2019-04-22T07:11:00.069Z,20.8
2019-04-22T07:12:14.169Z,20.4
2019-04-22T07:13:28.251Z,20.3
2019-04-22T07:14:42.333Z,20.2
2019-04-22T07:15:56.576Z,19.8
2019-04-22T07:17:10.523Z,20
2019-04-22T07:18:24.644Z,19.4
2019-04-22T07:19:38.808Z,19.6
2019-04-22T07:20:52.864Z,19.7
2019-04-22T07:22:06.927Z,20.1
2019-04-22T07:23:21.055Z,20.3
2019-04-22T07:24:35.164Z,20.8
2019-04-22T07:25:49.229Z,20.6
2019-04-22T07:27:03.278Z,21.1
2019-04-22T07:28:17.359Z,21.1
2019-04-22T07:29:31.481Z,21.7
2019-04-22T07:30:49.222Z,21.7
2019-04-22T07:31:59.625Z,21.6
2019-04-22T07:33:13.820Z,21.2
2019-04-22T07:34:27.839Z,21.3
2019-04-22T07:35:41.957Z,21.7
2019-04-22T07:36:55.977Z,21.7
2019-04-22T07:38:10.074Z,21.6
2019-04-22T07:39:24.243Z,21.9
2019-04-22T07:40:38.309Z,22.3
2019-04-22T07:41:52.287Z,22.7
2019-04-22T07:43:06.458Z,22.8
2019-04-22T07:44:20.482Z,21.8
2019-04-22T07:45:34.881Z,21.7
2019-04-22T07:46:48.677Z,22.2
2019-04-22T07:48:02.712Z,22.9
2019-04-22T07:49:16.795Z,22.9
2019-04-22T07:50:30.865Z,22.8
2019-04-22T07:51:45.017Z,22.3
2019-04-22T07:52:59.024Z,21.9
2019-04-22T07:54:13.131Z,21.8
2019-04-22T07:55:27.907Z,22.2
2019-04-22T07:56:41.235Z,21.7
2019-04-22T07:57:55.598Z,21.7
2019-04-22T07:59:09.361Z,22.2
2019-04-22T08:00:23.453Z,22.1
2019-04-22T08:01:37.492Z,23
2019-04-22T08:02:51.809Z,23.2
2019-04-22T08:04:05.619Z,23
2019-04-22T08:05:19.684Z,22.2
2019-04-22T08:06:33.800Z,22
2019-04-22T08:07:47.903Z,21.6
2019-04-22T08:09:02.018Z,21.7
2019-04-22T08:10:15.958Z,21.7
2019-04-22T08:11:30.002Z,21.5
2019-04-22T08:12:44.035Z,21.1
2019-04-22T08:13:58.135Z,21.2
2019-04-22T08:15:12.216Z,21.5
2019-04-22T08:16:26.392Z,21.8
2019-04-22T08:17:40.312Z,21.7
2019-04-22T08:18:54.370Z,22.1
2019-04-22T08:20:08.450Z,22.6
2019-04-22T08:21:22.500Z,22.1
2019-04-22T08:22:36.705Z,22
2019-04-22T08:23:50.663Z,21.9
2019-04-22T08:25:04.784Z,22.1
2019-04-22T08:26:18.785Z,22.6
2019-04-22T08:27:34.617Z,23.3
2019-04-22T08:28:46.853Z,22.5
2019-04-22T08:30:00.915Z,22.5
2019-04-22T08:31:14.981Z,23.1
2019-04-22T08:32:29.137Z,23.4
2019-04-22T08:33:43.064Z,24.2
2019-04-22T08:34:57.140Z,24.7
2019-04-22T08:36:11.180Z,25.2
2019-04-22T08:37:25.234Z,24.6
2019-04-22T08:38:39.304Z,25.2
2019-04-22T08:39:53.297Z,25.6
2019-04-22T08:41:07.331Z,24.6
2019-04-22T08:42:21.401Z,24.2
2019-04-22T08:43:35.513Z,24.6
2019-04-22T08:44:49.490Z,25.5
2019-04-22T08:46:03.576Z,25.7
2019-04-22T08:47:17.549Z,25.3
2019-04-22T08:48:31.529Z,25.1
2019-04-22T08:49:45.566Z,24.3
2019-04-22T08:50:59.592Z,24
2019-04-22T08:52:13.659Z,24.6
2019-04-22T08:53:27.650Z,24.4
2019-04-22T08:54:41.683Z,23.7
2019-04-22T08:55:55.765Z,24
2019-04-22T08:57:09.978Z,23.6
2019-04-22T08:58:23.833Z,24
2019-04-22T08:59:40.111Z,23.4
2019-04-22T09:00:51.976Z,23.3
2019-04-22T09:02:05.929Z,23.9
2019-04-22T09:03:19.964Z,23.9
2019-04-22T09:04:33.998Z,24.6
2019-04-22T09:05:48.092Z,24.9
2019-04-22T09:07:02.016Z,24.7
2019-04-22T09:08:16.056Z,24.3
2019-04-22T09:09:30.164Z,24.7
2019-04-22T09:10:44.120Z,24.6
2019-04-22T09:11:58.115Z,24.7
2019-04-22T09:13:12.141Z,24.8
2019-04-22T09:14:26.221Z,24.6
2019-04-22T09:15:40.216Z,24.3
2019-04-22T09:16:54.239Z,24.9
2019-04-22T09:18:08.277Z,24.9
2019-04-22T09:20:36.346Z,25.5
2019-04-22T09:21:50.477Z,26.1
2019-04-22T09:23:04.387Z,25.7
2019-04-22T09:24:18.461Z,25.9
2019-04-22T09:25:32.512Z,26.2
2019-04-22T09:26:46.753Z,25.6
2019-04-22T09:28:03.784Z,26
2019-04-22T09:29:14.480Z,26
2019-04-22T09:30:28.509Z,25
2019-04-22T09:31:42.526Z,25.5
2019-04-22T09:32:56.570Z,25.7
2019-04-22T09:34:10.598Z,24.9
2019-04-22T09:35:24.664Z,25.2
2019-04-22T09:36:38.663Z,25
2019-04-22T09:37:52.702Z,25.5
2019-04-22T09:39:06.792Z,25.6
2019-04-22T09:40:20.737Z,26.4
2019-04-22T09:41:34.858Z,26
2019-04-22T09:42:48.837Z,26.7
2019-04-22T09:44:02.823Z,26.9
2019-04-22T09:45:16.822Z,26.2
2019-04-22T09:46:30.862Z,26.4
2019-04-22T09:47:44.898Z,25.3
2019-04-22T09:48:58.868Z,25.1
2019-04-22T09:50:13.021Z,25.6
2019-04-22T09:51:26.904Z,25.4
2019-04-22T09:52:40.930Z,25.7
2019-04-22T09:53:54.937Z,25.4
2019-04-22T09:55:09.080Z,25.5
2019-04-22T09:56:25.085Z,25.4
2019-04-22T09:57:37.177Z,25.2
2019-04-22T09:58:51.033Z,25.4
2019-04-22T10:00:05.069Z,25.6
2019-04-22T10:01:19.095Z,25.4
2019-04-22T10:02:33.105Z,25.7
2019-04-22T10:03:47.206Z,25.5
2019-04-22T10:05:01.174Z,25
2019-04-22T10:06:15.309Z,25.7
2019-04-22T10:07:29.225Z,25.5
2019-04-22T10:08:43.249Z,25.1
2019-04-22T10:09:57.233Z,25.7
2019-04-22T10:11:11.310Z,25.9
2019-04-22T10:12:25.387Z,25.6
2019-04-22T10:13:39.331Z,25.9
2019-04-22T10:14:53.437Z,25.6
2019-04-22T10:16:07.377Z,25.5
2019-04-22T10:17:21.394Z,25.3
2019-04-22T10:18:35.449Z,25.1
2019-04-22T10:19:49.386Z,25.3
2019-04-22T10:21:03.499Z,25.8
2019-04-22T10:22:17.444Z,25.9
2019-04-22T10:23:31.457Z,25.7
2019-04-22T10:25:59.814Z,26.4
2019-04-22T10:27:13.527Z,25.8
2019-04-22T10:28:27.536Z,26.2
2019-04-22T10:29:41.545Z,26.8
2019-04-22T10:30:55.620Z,26.4
2019-04-22T10:32:09.600Z,25.6
2019-04-22T10:33:23.604Z,25.8
2019-04-22T10:34:37.624Z,26.1
2019-04-22T10:35:51.756Z,26.2
2019-04-22T10:37:05.655Z,26.7
2019-04-22T10:38:19.645Z,26.7
2019-04-22T10:39:33.634Z,25.9
2019-04-22T10:40:47.652Z,25.6
2019-04-22T10:42:01.638Z,25.3
2019-04-22T10:43:15.667Z,25.4
2019-04-22T10:44:29.677Z,26
2019-04-22T10:46:57.708Z,25.8
2019-04-22T10:48:11.721Z,25.6
2019-04-22T10:49:25.803Z,25.6
2019-04-22T10:50:39.809Z,25.4
2019-04-22T10:51:53.805Z,25.6
2019-04-22T10:53:07.915Z,25.8
2019-04-22T10:54:21.788Z,25.6
2019-04-22T10:55:35.840Z,25.9
2019-04-22T10:56:54.496Z,26
2019-04-22T10:58:03.904Z,25.9
2019-04-22T10:59:17.873Z,25.6
2019-04-22T11:00:31.897Z,25.4
2019-04-22T11:01:45.886Z,25.9
2019-04-22T11:02:59.884Z,26.3
2019-04-22T11:04:13.946Z,26.4
2019-04-22T11:05:27.960Z,26.1
2019-04-22T11:06:41.968Z,26.3
2019-04-22T11:07:55.942Z,26.1
2019-04-22T11:09:10.006Z,26
2019-04-22T11:10:24.095Z,25.3
2019-04-22T11:11:38.063Z,25.5
2019-04-22T11:12:52.131Z,25.9
2019-04-22T11:14:06.048Z,25.6
2019-04-22T11:15:20.036Z,25.6
2019-04-22T11:16:34.074Z,26.1
2019-04-22T11:17:48.298Z,26.3
2019-04-22T11:19:02.155Z,26.3
2019-04-22T11:20:16.101Z,25.7
2019-04-22T11:21:30.142Z,26
2019-04-22T11:22:44.151Z,26.9
2019-04-22T11:23:58.206Z,26.2
2019-04-22T11:25:12.179Z,25.2
2019-04-22T11:26:27.109Z,25.9
2019-04-22T11:27:41.274Z,26.9
2019-04-22T11:28:54.262Z,27.2
2019-04-22T11:30:08.353Z,27.1
2019-04-22T11:31:22.291Z,26.5
2019-04-22T11:32:36.369Z,26.2
2019-04-22T11:33:50.630Z,26.3
2019-04-22T11:35:04.369Z,26.5
2019-04-22T11:36:18.455Z,26.7
2019-04-22T11:37:32.419Z,26.9
2019-04-22T11:38:46.447Z,26.7
2019-04-22T11:40:00.650Z,25.7
2019-04-22T11:41:14.555Z,25.4
2019-04-22T11:42:28.515Z,25.6
2019-04-22T11:43:42.628Z,26.1
2019-04-22T11:44:56.581Z,26.3
2019-04-22T11:46:10.720Z,26.6
2019-04-22T11:47:24.668Z,26.9
2019-04-22T11:48:38.670Z,26.3
2019-04-22T11:49:52.678Z,26
2019-04-22T11:51:06.805Z,26.6
2019-04-22T11:52:20.740Z,27
2019-04-22T11:53:34.756Z,26.7
2019-04-22T11:54:48.794Z,26.6
2019-04-22T11:56:02.835Z,26.4
2019-04-22T11:57:16.964Z,26.3
2019-04-22T11:58:30.903Z,26.2
2019-04-22T11:59:44.949Z,26
2019-04-22T12:00:58.997Z,26.5
2019-04-22T12:02:13.011Z,27.2
2019-04-22T12:03:27.027Z,27.7
2019-04-22T12:04:41.083Z,28.1
2019-04-22T12:05:55.199Z,27.3
2019-04-22T12:07:09.131Z,27.4
2019-04-22T12:08:23.148Z,26.6
2019-04-22T12:09:37.223Z,26.1
2019-04-22T12:10:51.196Z,26.2
2019-04-22T12:12:05.317Z,26.5
2019-04-22T12:13:19.312Z,27.2
2019-04-22T12:14:33.321Z,27.4
2019-04-22T12:15:47.378Z,26.7
2019-04-22T12:17:01.373Z,26.9
2019-04-22T12:18:15.425Z,27
2019-04-22T12:19:29.484Z,26.9
2019-04-22T12:20:43.519Z,26.7
2019-04-22T12:21:57.615Z,26.9
2019-04-22T12:23:11.539Z,26.9
2019-04-22T12:24:25.575Z,26.7
2019-04-22T12:25:39.706Z,26.5
2019-04-22T12:26:53.734Z,26.5
2019-04-22T12:28:07.776Z,26.4
2019-04-22T12:29:21.711Z,26.4
2019-04-22T12:30:35.739Z,26
2019-04-22T12:31:49.778Z,26.4
2019-04-22T12:33:03.799Z,27.3
2019-04-22T12:34:17.919Z,27.4
2019-04-22T12:35:31.898Z,27.1
2019-04-22T12:36:45.966Z,26.4
2019-04-22T12:37:59.970Z,26.5
2019-04-22T12:39:14.037Z,27.4
2019-04-22T12:40:28.061Z,26.9
2019-04-22T12:41:42.084Z,27.2
2019-04-22T12:42:56.166Z,27.5
2019-04-22T12:44:10.167Z,26.8
2019-04-22T12:45:24.311Z,26.5
2019-04-22T12:46:38.246Z,26.3
2019-04-22T12:47:52.311Z,26.3
2019-04-22T12:49:06.424Z,26.7
2019-04-22T12:50:20.520Z,26.9
2019-04-22T12:51:34.434Z,27.1
2019-04-22T12:52:48.487Z,27.4
2019-04-22T12:54:02.536Z,27.8
2019-04-22T12:55:16.584Z,27.9
2019-04-22T12:56:30.597Z,26.9
2019-04-22T12:57:44.625Z,27.2
2019-04-22T12:58:58.662Z,26.7
2019-04-22T13:00:12.792Z,27.2
2019-04-22T13:01:26.793Z,27.5
2019-04-22T13:02:40.873Z,27.4
2019-04-22T13:03:54.816Z,27.4
2019-04-22T13:05:09.644Z,27.9
2019-04-22T13:06:22.913Z,26.8
2019-04-22T13:07:36.933Z,27
2019-04-22T13:08:51.108Z,27.8
2019-04-22T13:10:05.125Z,27.6
2019-04-22T13:11:19.051Z,27.6
2019-04-22T13:12:33.121Z,27.1
2019-04-22T13:13:47.158Z,27
2019-04-22T13:15:01.170Z,27.1
2019-04-22T13:16:15.323Z,27.6
2019-04-22T13:17:29.267Z,27.6
2019-04-22T13:18:43.424Z,27
2019-04-22T13:19:57.372Z,27.4
2019-04-22T13:21:11.389Z,28.4
2019-04-22T13:22:25.438Z,28.1
2019-04-22T13:23:39.525Z,28.2
2019-04-22T13:24:53.576Z,27.3
2019-04-22T13:26:07.589Z,27.8
2019-04-22T13:27:21.612Z,28
2019-04-22T13:28:35.693Z,27.9
2019-04-22T13:29:49.740Z,27.2
2019-04-22T13:31:03.788Z,27.4
2019-04-22T13:32:17.724Z,28
2019-04-22T13:33:31.773Z,28.1
2019-04-22T13:34:45.778Z,28.6
2019-04-22T13:35:59.834Z,28
2019-04-22T13:37:13.867Z,27.5
2019-04-22T13:38:27.916Z,27.2
2019-04-22T13:39:41.922Z,27.7
2019-04-22T13:40:56.054Z,28.6
2019-04-22T13:42:10.011Z,28.9
2019-04-22T13:43:24.018Z,27.8
2019-04-22T13:44:38.046Z,26.7
2019-04-22T13:45:52.087Z,26.6
2019-04-22T13:47:06.129Z,26.9
2019-04-22T13:48:20.309Z,26.5
2019-04-22T13:49:34.190Z,26.3
2019-04-22T13:50:49.594Z,26.5
2019-04-22T13:52:02.271Z,27
2019-04-22T13:53:16.329Z,26.7
2019-04-22T13:54:30.348Z,26.2
2019-04-22T13:55:44.672Z,26.4
2019-04-22T13:56:58.437Z,26.5
2019-04-22T13:58:12.547Z,26.4
2019-04-22T13:59:26.596Z,26.7
2019-04-22T14:00:40.583Z,27.1
2019-04-22T14:01:54.613Z,27.2
2019-04-22T14:03:08.666Z,27.5
2019-04-22T14:04:22.693Z,27
2019-04-22T14:05:36.773Z,27.1
2019-04-22T14:06:50.778Z,27.8
2019-04-22T14:08:04.897Z,28
2019-04-22T14:09:18.858Z,27.7
2019-04-22T14:10:33.020Z,26.8
2019-04-22T14:11:46.949Z,27.2
2019-04-22T14:13:00.987Z,27.2
2019-04-22T14:14:15.150Z,27.9
2019-04-22T14:15:29.234Z,28.1
2019-04-22T14:16:43.076Z,28.1
2019-04-22T14:17:57.118Z,27.6
2019-04-22T14:19:11.179Z,28.1
2019-04-22T14:20:25.282Z,27.6
2019-04-22T14:21:39.408Z,27.3
2019-04-22T14:22:53.297Z,27.3
2019-04-22T14:24:07.422Z,27.1
2019-04-22T14:25:21.476Z,27.3
2019-04-22T14:26:35.526Z,27.2
2019-04-22T14:27:49.476Z,27.2
2019-04-22T14:29:03.525Z,27.2
2019-04-22T14:30:17.654Z,27.6
2019-04-22T14:31:31.600Z,27.6
2019-04-22T14:32:45.712Z,26.8
2019-04-22T14:33:59.711Z,26.6
2019-04-22T14:35:13.794Z,26.5
2019-04-22T14:36:27.824Z,26.7
2019-04-22T14:37:41.860Z,26.5
2019-04-22T14:38:55.896Z,26.8
2019-04-22T14:40:09.976Z,27.5
2019-04-22T14:41:24.018Z,27.1
2019-04-22T14:42:38.097Z,27.6
2019-04-22T14:43:52.140Z,27.8
2019-04-22T14:45:06.175Z,27.9
2019-04-22T14:46:20.398Z,27.9
2019-04-22T14:47:34.337Z,27.9
2019-04-22T14:48:48.341Z,27.7
2019-04-22T14:50:02.359Z,27.9
2019-04-22T14:51:16.525Z,27.6
2019-04-22T14:52:30.501Z,27.2
2019-04-22T14:53:44.518Z,27
2019-04-22T14:54:58.619Z,27.5
2019-04-22T14:56:12.963Z,27.6
2019-04-22T14:57:26.709Z,27
2019-04-22T14:58:40.699Z,26.9
2019-04-22T14:59:54.816Z,26.5
2019-04-22T15:01:08.806Z,26.4
2019-04-22T15:02:22.846Z,26.5
2019-04-22T15:03:36.898Z,26.4
2019-04-22T15:04:50.969Z,26.3
2019-04-22T15:06:04.995Z,26.2
2019-04-22T15:07:19.055Z,26.4
2019-04-22T15:08:33.131Z,26.9
2019-04-22T15:09:47.157Z,27
2019-04-22T15:11:01.218Z,26.9
2019-04-22T15:12:15.256Z,27.2
2019-04-22T15:13:29.328Z,26.5
2019-04-22T15:14:43.385Z,26.5
2019-04-22T15:15:57.411Z,26.5
2019-04-22T15:18:25.875Z,26.3
2019-04-22T15:19:39.699Z,27.1
2019-04-22T15:20:53.669Z,27.4
2019-04-22T15:22:07.695Z,26.7
2019-04-22T15:23:21.725Z,26.4
2019-04-22T15:24:35.883Z,26.2
2019-04-22T15:25:54.289Z,26.6
2019-04-22T15:27:03.906Z,26.7
2019-04-22T15:28:17.964Z,27.3
2019-04-22T15:29:32.014Z,26.2
2019-04-22T15:30:46.047Z,26.5
2019-04-22T15:32:00.137Z,26.6
2019-04-22T15:33:14.182Z,26.5
2019-04-22T15:34:28.267Z,26.6
2019-04-22T15:35:42.460Z,27
2019-04-22T15:36:56.378Z,26.8
2019-04-22T15:38:10.404Z,26.6
2019-04-22T15:39:24.571Z,26.7
2019-04-22T15:40:38.606Z,27
2019-04-22T15:41:52.592Z,26.6
2019-04-22T15:43:06.697Z,26.4
2019-04-22T15:44:20.821Z,26.3
2019-04-22T15:45:34.811Z,26.5
2019-04-22T15:46:48.952Z,27.1
2019-04-22T15:48:03.003Z,27.4
2019-04-22T15:49:17.010Z,27.4
2019-04-22T15:50:31.102Z,27.4
2019-04-22T15:51:45.116Z,26.9
2019-04-22T15:52:59.177Z,26.5
2019-04-22T15:54:13.238Z,26.9
2019-04-22T15:55:27.324Z,27.1
2019-04-22T15:56:41.373Z,26.5
2019-04-22T15:57:55.420Z,26.5
2019-04-22T15:59:09.541Z,25.9
2019-04-22T16:00:23.585Z,26
2019-04-22T16:01:37.602Z,26.4
2019-04-22T16:02:51.777Z,26.6
2019-04-22T16:04:05.750Z,26.2
2019-04-22T16:05:19.804Z,26.1
2019-04-22T16:06:33.889Z,26.4
2019-04-22T16:07:47.957Z,26.1
2019-04-22T16:09:02.020Z,26.1
2019-04-22T16:10:19.143Z,26.2
2019-04-22T16:11:30.234Z,25.8
2019-04-22T16:12:44.301Z,25.9
2019-04-22T16:13:58.283Z,25.6
2019-04-22T16:15:12.434Z,25.8
2019-04-22T16:16:26.518Z,26.2
2019-04-22T16:17:40.490Z,26.2
2019-04-22T16:18:54.563Z,25.8
2019-04-22T16:20:08.635Z,25.9
2019-04-22T16:21:22.710Z,25.9
2019-04-22T16:22:36.779Z,25.8
2019-04-22T16:23:50.855Z,25.4
2019-04-22T16:25:04.943Z,25.3
2019-04-22T16:26:19.030Z,25.5
2019-04-22T16:27:33.048Z,25.5
2019-04-22T16:28:47.135Z,25.6
2019-04-22T16:30:01.221Z,25.9
2019-04-22T16:31:15.347Z,25.7
2019-04-22T16:32:29.392Z,25.6
2019-04-22T16:33:48.126Z,25.9
2019-04-22T16:34:57.462Z,26.6
2019-04-22T16:36:11.630Z,26.6
2019-04-22T16:37:25.690Z,25.7
2019-04-22T16:38:39.677Z,25.5